createdAt,value
2023-03-14T00:01:30.153Z,1.03
2023-03-14T00:03:57.040Z,1.73
2023-03-14T00:06:24.340Z,1.98
2023-03-14T00:08:52.651Z,1.90
2023-03-14T00:11:22.370Z,1.83
2023-03-14T00:13:50.756Z,1.80
2023-03-14T00:16:18.091Z,2.15
2023-03-14T00:18:44.845Z,2.47
2023-03-14T00:21:13.034Z,1.60
2023-03-14T00:23:41.269Z,1.77
2023-03-14T00:26:19.719Z,1.50
2023-03-14T00:28:47.043Z,1.45
2023-03-14T00:31:16.594Z,1.40
2023-03-14T00:33:44.624Z,0.98
2023-03-14T00:36:13.968Z,0.95
2023-03-14T00:38:42.578Z,1.30
2023-03-14T00:41:12.255Z,1.10
2023-03-14T00:43:39.056Z,0.98
2023-03-14T00:46:06.310Z,1.15
2023-03-14T00:48:33.577Z,1.00
2023-03-14T00:51:00.337Z,1.00
2023-03-14T00:53:27.072Z,1.52
2023-03-14T00:55:54.006Z,1.40
2023-03-14T00:58:20.790Z,1.70
2023-03-14T01:00:47.830Z,1.52
2023-03-14T01:03:15.716Z,1.30
2023-03-14T01:05:42.928Z,1.50
2023-03-14T01:08:09.803Z,1.38
2023-03-14T01:10:41.232Z,1.60
2023-03-14T01:13:09.164Z,2.00
2023-03-14T01:15:37.445Z,1.83
2023-03-14T01:18:04.910Z,1.70
2023-03-14T01:20:32.076Z,1.30
2023-03-14T01:22:58.875Z,1.10
2023-03-14T01:25:25.807Z,1.40
2023-03-14T01:27:52.491Z,1.17
2023-03-14T01:30:19.234Z,1.00
2023-03-14T01:32:46.131Z,1.17
2023-03-14T01:35:12.956Z,1.30
2023-03-14T01:37:39.665Z,1.10
2023-03-14T01:40:07.093Z,1.40
2023-03-14T01:42:33.822Z,1.30
2023-03-14T01:45:04.130Z,1.25
2023-03-14T01:47:30.834Z,1.40
2023-03-14T01:50:05.977Z,1.30
2023-03-14T01:52:42.982Z,1.10
2023-03-14T01:55:15.083Z,1.10
2023-03-14T01:57:48.915Z,0.82
2023-03-14T02:00:22.661Z,0.85
2023-03-14T02:03:08.084Z,0.90
2023-03-14T02:05:41.497Z,0.97
2023-03-14T02:08:14.362Z,0.80
2023-03-14T02:10:48.235Z,0.73
2023-03-14T02:13:18.283Z,0.90
2023-03-14T02:15:47.070Z,0.95
2023-03-14T02:18:15.487Z,1.00
2023-03-14T02:21:00.955Z,0.80
2023-03-14T02:24:10.301Z,1.30
2023-03-14T02:27:05.336Z,0.90
2023-03-14T02:29:34.642Z,0.90
2023-03-14T02:32:01.797Z,0.77
2023-03-14T02:34:28.798Z,0.90
2023-03-14T02:36:55.617Z,1.15
2023-03-14T02:39:45.662Z,1.08
2023-03-14T02:42:13.777Z,0.80
2023-03-14T02:44:52.700Z,0.90
2023-03-14T02:47:22.976Z,1.40
2023-03-14T02:49:49.832Z,1.10
2023-03-14T02:52:16.499Z,1.00
2023-03-14T02:54:43.276Z,1.00
2023-03-14T02:57:09.941Z,1.43
2023-03-14T02:59:36.719Z,1.23
2023-03-14T03:02:03.423Z,1.35
2023-03-14T03:04:30.141Z,1.33
2023-03-14T03:06:56.864Z,1.25
2023-03-14T03:09:23.542Z,1.10
2023-03-14T03:11:50.315Z,1.20
2023-03-14T03:14:17.003Z,1.30
2023-03-14T03:16:43.926Z,1.70
2023-03-14T03:19:10.698Z,1.20
2023-03-14T03:21:37.425Z,1.03
2023-03-14T03:24:04.210Z,1.25
2023-03-14T03:26:32.142Z,1.45
2023-03-14T03:28:58.851Z,1.63
2023-03-14T03:31:25.625Z,1.30
2023-03-14T03:33:52.344Z,1.03
2023-03-14T03:36:26.016Z,1.30
2023-03-14T03:38:52.910Z,1.30
2023-03-14T03:41:19.655Z,1.10
2023-03-14T03:43:46.365Z,1.35
2023-03-14T03:46:13.245Z,1.10
2023-03-14T03:48:40.351Z,1.50
2023-03-14T03:51:07.404Z,1.35
2023-03-14T03:53:34.348Z,1.10
2023-03-14T03:56:02.037Z,1.83
2023-03-14T03:58:28.846Z,1.30
2023-03-14T04:00:55.733Z,1.20
2023-03-14T04:03:22.419Z,1.25
2023-03-14T04:06:02.911Z,1.10
2023-03-14T04:08:30.355Z,0.93
2023-03-14T04:10:58.557Z,1.10
2023-03-14T04:13:25.820Z,1.38
2023-03-14T04:15:53.733Z,1.25
2023-03-14T04:18:20.971Z,1.10
2023-03-14T04:20:53.079Z,0.90
2023-03-14T04:23:19.993Z,1.13
2023-03-14T04:25:46.678Z,1.33
2023-03-14T04:28:13.407Z,1.20
2023-03-14T04:30:40.098Z,1.02
2023-03-14T04:33:06.895Z,1.10
2023-03-14T04:35:33.955Z,1.17
2023-03-14T04:38:01.024Z,1.20
2023-03-14T04:40:27.888Z,1.23
2023-03-14T04:42:54.628Z,1.08
2023-03-14T04:45:21.510Z,1.13
2023-03-14T04:47:48.346Z,0.90
2023-03-14T04:50:15.403Z,1.08
2023-03-14T04:52:42.140Z,1.17
2023-03-14T04:55:08.985Z,1.35
2023-03-14T04:57:35.734Z,1.10
2023-03-14T05:00:07.371Z,1.00
2023-03-14T05:02:34.820Z,0.80
2023-03-14T05:05:01.626Z,1.30
2023-03-14T05:07:28.519Z,1.33
2023-03-14T05:09:55.246Z,1.55
2023-03-14T05:12:22.641Z,1.40
2023-03-14T05:14:49.438Z,1.35
2023-03-14T05:17:16.281Z,1.38
2023-03-14T05:19:43.098Z,1.10
2023-03-14T05:22:09.824Z,1.10
2023-03-14T05:24:36.791Z,1.20
2023-03-14T05:27:04.432Z,1.10
2023-03-14T05:29:31.369Z,1.10
2023-03-14T05:31:58.270Z,1.05
2023-03-14T05:34:25.100Z,1.10
2023-03-14T05:36:51.860Z,1.30
2023-03-14T05:39:19.073Z,1.52
2023-03-14T05:41:45.775Z,1.30
2023-03-14T05:44:12.551Z,1.20
2023-03-14T05:46:39.293Z,1.40
2023-03-14T05:49:06.018Z,1.53
2023-03-14T05:51:32.786Z,1.80
2023-03-14T05:53:59.462Z,1.60
2023-03-14T05:56:26.158Z,1.40
2023-03-14T05:58:52.915Z,0.93
2023-03-14T06:01:19.642Z,0.80
2023-03-14T06:03:46.481Z,0.73
2023-03-14T06:06:13.262Z,0.65
2023-03-14T06:08:40.146Z,0.40
2023-03-14T06:11:07.140Z,0.30
2023-03-14T06:13:33.883Z,0.30
2023-03-14T06:16:00.799Z,0.30
2023-03-14T06:18:27.614Z,0.35
2023-03-14T06:20:57.960Z,0.50
2023-03-14T06:23:25.582Z,0.40
2023-03-14T06:25:52.779Z,0.30
2023-03-14T06:28:19.489Z,0.40
2023-03-14T06:30:46.281Z,0.55
2023-03-14T06:33:13.104Z,0.40
2023-03-14T06:35:39.939Z,0.60
2023-03-14T06:38:06.618Z,0.50
2023-03-14T06:40:33.296Z,0.30
2023-03-14T06:43:00.261Z,0.40
2023-03-14T06:45:27.255Z,0.47
2023-03-14T06:47:53.972Z,0.57
2023-03-14T06:50:20.771Z,0.40
2023-03-14T06:52:49.047Z,0.50
2023-03-14T06:55:17.049Z,0.60
2023-03-14T06:57:45.050Z,0.30
2023-03-14T07:00:13.521Z,0.20
2023-03-14T07:02:43.217Z,0.30
2023-03-14T07:05:12.300Z,0.30
2023-03-14T07:07:39.297Z,0.38
2023-03-14T07:10:06.538Z,0.40
2023-03-14T07:12:33.265Z,0.30
2023-03-14T07:17:49.456Z,0.65
2023-03-14T07:20:16.723Z,0.32
2023-03-14T07:22:43.564Z,0.40
2023-03-14T07:25:13.123Z,0.20
2023-03-14T07:27:40.096Z,0.57
2023-03-14T07:30:07.589Z,0.20
2023-03-14T07:32:34.365Z,0.50
2023-03-14T07:35:01.313Z,0.30
2023-03-14T07:37:28.002Z,0.30
2023-03-14T07:39:54.709Z,0.30
2023-03-14T07:42:21.946Z,0.40
2023-03-14T07:44:48.730Z,0.73
2023-03-14T07:47:15.455Z,0.40
2023-03-14T07:49:42.197Z,0.30
2023-03-14T07:52:08.971Z,0.70
2023-03-14T07:54:35.742Z,0.40
2023-03-14T07:57:02.486Z,0.43
2023-03-14T07:59:29.343Z,0.40
2023-03-14T08:01:56.105Z,0.60
2023-03-14T08:04:22.910Z,0.43
2023-03-14T08:06:49.593Z,0.60
2023-03-14T08:09:16.431Z,0.60
2023-03-14T08:11:43.152Z,0.80
2023-03-14T08:14:10.156Z,0.50
2023-03-14T08:16:37.060Z,0.40
2023-03-14T08:19:04.141Z,0.47
2023-03-14T08:21:31.517Z,0.22
2023-03-14T08:23:58.210Z,0.30
2023-03-14T08:26:24.890Z,0.40
2023-03-14T08:28:51.647Z,0.30
2023-03-14T08:31:18.639Z,0.30
2023-03-14T08:33:45.546Z,0.30
2023-03-14T08:36:12.542Z,0.60
2023-03-14T08:38:39.256Z,0.50
2023-03-14T08:41:06.226Z,0.30
2023-03-14T08:43:33.016Z,0.30
2023-03-14T08:46:00.919Z,0.40
2023-03-14T08:48:28.612Z,0.50
2023-03-14T08:51:13.722Z,0.75
2023-03-14T08:53:41.090Z,0.40
2023-03-14T08:56:10.892Z,0.57
2023-03-14T08:58:39.073Z,0.80
2023-03-14T09:01:07.201Z,0.40
2023-03-14T09:03:34.003Z,0.68
2023-03-14T09:06:09.058Z,0.87
2023-03-14T09:08:38.184Z,0.50
2023-03-14T09:11:09.298Z,0.85
2023-03-14T09:13:36.797Z,0.60
2023-03-14T09:16:03.605Z,0.45
2023-03-14T09:18:30.640Z,0.27
2023-03-14T09:20:57.491Z,0.73
2023-03-14T09:23:24.379Z,0.90
2023-03-14T09:25:56.733Z,0.52
2023-03-14T09:28:23.578Z,0.75
2023-03-14T09:30:50.644Z,1.17
2023-03-14T09:33:18.342Z,1.00
2023-03-14T09:35:45.379Z,0.68
2023-03-14T09:38:13.135Z,1.00
2023-03-14T09:40:40.225Z,1.00
2023-03-14T09:43:07.156Z,0.77
2023-03-14T09:45:41.434Z,1.08
2023-03-14T09:48:21.694Z,1.38
2023-03-14T09:50:55.256Z,1.15
2023-03-14T09:53:27.349Z,0.80
2023-03-14T09:55:56.351Z,1.17
2023-03-14T09:58:25.269Z,1.27
2023-03-14T10:00:56.599Z,1.90
2023-03-14T10:03:33.261Z,1.33
2023-03-14T10:06:00.483Z,1.23
2023-03-14T10:08:27.473Z,1.03
2023-03-14T10:10:55.842Z,1.10
2023-03-14T10:13:27.067Z,0.85
2023-03-14T10:16:00.393Z,1.10
2023-03-14T10:18:29.356Z,0.90
2023-03-14T10:21:08.646Z,1.00
2023-03-14T10:23:36.740Z,1.10
2023-03-14T10:26:18.600Z,1.10
2023-03-14T10:28:48.409Z,1.35
2023-03-14T10:31:16.528Z,1.38
2023-03-14T10:33:43.465Z,1.27
2023-03-14T10:36:24.121Z,1.35
2023-03-14T10:38:50.878Z,1.42
2023-03-14T10:41:27.070Z,1.17
2023-03-14T10:43:58.571Z,1.70
2023-03-14T10:46:27.542Z,1.10
2023-03-14T10:48:55.089Z,0.90
2023-03-14T10:51:27.981Z,1.33
2023-03-14T10:54:01.937Z,1.13
2023-03-14T10:56:35.920Z,1.20
2023-03-14T10:59:05.019Z,0.80
2023-03-14T11:01:40.171Z,1.30
2023-03-14T11:04:51.821Z,0.88
2023-03-14T11:07:30.456Z,0.98
2023-03-14T11:10:23.809Z,1.45
2023-03-14T11:13:03.750Z,1.13
2023-03-14T11:16:07.422Z,1.48
2023-03-14T11:19:06.473Z,1.17
2023-03-14T11:21:48.032Z,1.52
2023-03-14T11:24:20.554Z,1.25
2023-03-14T11:27:02.441Z,1.33
2023-03-14T11:29:38.265Z,0.80
2023-03-14T11:32:18.430Z,0.90
2023-03-14T11:34:55.807Z,0.80
2023-03-14T11:37:41.739Z,0.98
2023-03-14T11:40:28.845Z,0.73
2023-03-14T11:43:02.221Z,0.60
2023-03-14T11:45:36.300Z,0.55
2023-03-14T11:48:24.402Z,0.77
2023-03-14T11:50:54.108Z,0.68
2023-03-14T11:53:30.851Z,0.80
2023-03-14T11:55:57.618Z,0.60
2023-03-14T11:58:39.158Z,0.77
2023-03-14T12:01:12.151Z,0.77
2023-03-14T12:03:58.896Z,0.70
2023-03-14T12:06:43.695Z,0.60
2023-03-14T12:09:11.946Z,0.47
2023-03-14T12:11:51.752Z,1.33
2023-03-14T12:14:22.802Z,0.60
2023-03-14T12:16:56.024Z,0.60
2023-03-14T12:19:23.581Z,0.80
2023-03-14T12:21:55.969Z,0.90
2023-03-14T12:24:34.698Z,0.75
2023-03-14T12:27:03.809Z,0.70
2023-03-14T12:29:31.192Z,0.77
2023-03-14T12:32:10.225Z,0.60
2023-03-14T12:34:46.423Z,0.70
2023-03-14T12:37:28.738Z,0.50
2023-03-14T12:40:07.343Z,0.70
2023-03-14T12:43:01.924Z,0.55
2023-03-14T12:45:32.966Z,0.60
2023-03-14T12:48:15.662Z,0.40
2023-03-14T12:50:54.418Z,0.32
2023-03-14T12:53:56.334Z,0.40
2023-03-14T12:56:37.174Z,0.50
2023-03-14T12:59:19.420Z,0.90
2023-03-14T13:02:00.417Z,0.73
2023-03-14T13:04:39.296Z,0.70
2023-03-14T13:07:13.541Z,0.52
2023-03-14T13:09:59.020Z,0.40
2023-03-14T13:12:33.118Z,0.50
2023-03-14T13:15:01.634Z,0.70
2023-03-14T13:17:37.269Z,0.55
2023-03-14T13:20:31.243Z,0.47
2023-03-14T13:22:58.073Z,0.60
2023-03-14T13:25:24.994Z,0.30
2023-03-14T13:27:56.774Z,0.47
2023-03-14T13:30:27.552Z,0.50
2023-03-14T13:32:55.740Z,0.40
2023-03-14T13:35:40.046Z,0.65
2023-03-14T13:38:15.942Z,0.37
2023-03-14T13:40:45.392Z,0.43
2023-03-14T13:43:16.834Z,0.47
2023-03-14T13:45:50.823Z,0.45
2023-03-14T13:48:18.853Z,0.32
2023-03-14T13:50:59.515Z,0.40
2023-03-14T13:53:27.451Z,0.55
2023-03-14T13:55:54.909Z,0.60
2023-03-14T13:58:28.543Z,0.55
2023-03-14T14:00:58.075Z,0.47
2023-03-14T14:03:25.048Z,1.17
2023-03-14T14:05:52.003Z,0.40
2023-03-14T14:08:18.765Z,0.50
2023-03-14T14:10:48.486Z,0.47
2023-03-14T14:13:20.124Z,0.43
2023-03-14T14:15:50.349Z,0.40
2023-03-14T14:18:20.830Z,0.65
2023-03-14T14:20:49.021Z,0.60
2023-03-14T14:23:20.956Z,0.65
2023-03-14T14:25:50.183Z,0.57
2023-03-14T14:28:26.321Z,0.90
2023-03-14T14:31:06.650Z,0.65
2023-03-14T14:33:47.403Z,0.50
2023-03-14T14:36:21.647Z,0.50
2023-03-14T14:38:58.056Z,0.50
2023-03-14T14:41:32.211Z,0.70
2023-03-14T14:44:00.185Z,0.47
2023-03-14T14:46:31.246Z,0.60
2023-03-14T14:49:03.067Z,0.57
2023-03-14T14:51:34.874Z,0.70
2023-03-14T14:54:14.972Z,0.37
2023-03-14T14:56:46.367Z,0.50
2023-03-14T14:59:23.018Z,0.50
2023-03-14T15:01:52.139Z,0.40
2023-03-14T15:04:19.121Z,0.55
2023-03-14T15:06:49.505Z,0.40
2023-03-14T15:09:18.229Z,0.52
2023-03-14T15:11:45.325Z,0.40
2023-03-14T15:14:12.106Z,0.50
2023-03-14T15:16:40.379Z,0.50
2023-03-14T15:19:24.702Z,0.30
2023-03-14T15:21:53.808Z,0.40
2023-03-14T15:24:20.730Z,0.60
2023-03-14T15:26:47.514Z,0.60
2023-03-14T15:29:14.337Z,0.40
2023-03-14T15:31:41.397Z,0.50
2023-03-14T15:34:09.845Z,0.82
2023-03-14T15:36:37.644Z,0.60
2023-03-14T15:39:06.644Z,0.50
2023-03-14T15:41:33.445Z,0.50
2023-03-14T15:44:00.182Z,0.60
2023-03-14T15:46:28.253Z,0.60
2023-03-14T15:48:56.596Z,0.52
2023-03-14T15:51:23.606Z,0.60
2023-03-14T15:53:50.352Z,0.57
2023-03-14T15:56:19.302Z,0.60
2023-03-14T15:58:48.953Z,0.30
2023-03-14T16:01:19.534Z,0.60
2023-03-14T16:03:46.816Z,0.60
2023-03-14T16:06:14.600Z,0.70
2023-03-14T16:08:43.141Z,0.40
2023-03-14T16:11:11.539Z,0.70
2023-03-14T16:13:39.182Z,0.45
2023-03-14T16:16:06.727Z,0.47
2023-03-14T16:18:36.449Z,0.38
2023-03-14T16:21:15.138Z,0.53
2023-03-14T16:23:42.200Z,0.57
2023-03-14T16:26:15.870Z,0.30
2023-03-14T16:28:44.063Z,0.30
2023-03-14T16:31:13.892Z,0.30
2023-03-14T16:33:40.925Z,0.40
2023-03-14T16:36:11.624Z,0.30
2023-03-14T16:38:40.558Z,0.50
2023-03-14T16:41:15.701Z,0.55
2023-03-14T16:43:43.530Z,0.70
2023-03-14T16:46:19.119Z,0.50
2023-03-14T16:48:46.514Z,0.40
2023-03-14T16:51:14.796Z,0.50
2023-03-14T16:53:41.522Z,0.50
2023-03-14T16:56:08.950Z,0.52
2023-03-14T16:58:36.853Z,0.40
2023-03-14T17:01:11.751Z,0.38
2023-03-14T17:03:44.250Z,0.70
2023-03-14T17:06:12.776Z,0.40
2023-03-14T17:08:40.184Z,0.38
2023-03-14T17:11:08.280Z,0.50
2023-03-14T17:13:35.388Z,0.45
2023-03-14T17:16:02.567Z,0.57
2023-03-14T17:18:31.213Z,0.40
2023-03-14T17:20:58.767Z,0.52
2023-03-14T17:23:27.084Z,0.43
2023-03-14T17:25:57.321Z,0.60
2023-03-14T17:28:26.676Z,1.10
2023-03-14T17:31:24.172Z,0.30
2023-03-14T17:33:55.063Z,0.90
2023-03-14T17:36:28.855Z,0.60
2023-03-14T17:38:57.522Z,0.40
2023-03-14T17:41:24.996Z,0.40
2023-03-14T17:43:51.786Z,0.20
2023-03-14T17:46:18.562Z,0.70
2023-03-14T17:48:47.835Z,0.53
2023-03-14T17:51:16.273Z,0.65
2023-03-14T17:53:43.453Z,0.40
2023-03-14T17:56:11.712Z,0.38
2023-03-14T17:58:38.758Z,0.50
2023-03-14T18:01:11.168Z,0.80
2023-03-14T18:03:38.155Z,0.40
2023-03-14T18:06:07.007Z,0.50
2023-03-14T18:08:33.782Z,0.63
2023-03-14T18:11:00.606Z,0.68
2023-03-14T18:13:27.465Z,1.67
2023-03-14T18:15:54.367Z,1.55
2023-03-14T18:18:21.223Z,3.00
2023-03-14T18:20:53.974Z,1.58
2023-03-14T18:23:22.379Z,3.58
2023-03-14T18:25:50.409Z,2.50
2023-03-14T18:28:18.109Z,4.90
2023-03-14T18:30:52.035Z,4.53
2023-03-14T18:33:22.672Z,2.85
2023-03-14T18:35:52.105Z,2.67
2023-03-14T18:38:20.105Z,1.23
2023-03-14T18:40:46.860Z,1.10
2023-03-14T18:43:13.602Z,1.17
2023-03-14T18:45:40.330Z,0.85
2023-03-14T18:48:07.184Z,1.20
2023-03-14T18:50:33.938Z,1.13
2023-03-14T18:53:01.753Z,1.00
2023-03-14T18:55:28.585Z,0.73
2023-03-14T18:57:55.290Z,0.85
2023-03-14T19:00:22.286Z,1.00
2023-03-14T19:02:50.360Z,1.47
2023-03-14T19:05:17.142Z,1.00
2023-03-14T19:07:43.978Z,1.30
2023-03-14T19:10:11.797Z,1.80
2023-03-14T19:12:38.511Z,1.38
2023-03-14T19:15:06.240Z,1.50
2023-03-14T19:17:33.522Z,3.40
2023-03-14T19:20:00.228Z,3.85
2023-03-14T19:22:26.925Z,2.30
2023-03-14T19:24:55.437Z,3.00
2023-03-14T19:27:22.230Z,1.70
2023-03-14T19:29:49.612Z,1.60
2023-03-14T19:32:19.505Z,2.13
2023-03-14T19:34:46.350Z,1.85
2023-03-14T19:37:13.083Z,4.90
2023-03-14T19:39:40.388Z,4.90
2023-03-14T19:42:07.437Z,3.92
2023-03-14T19:44:34.129Z,3.55
2023-03-14T19:47:00.961Z,5.53
2023-03-14T19:49:28.319Z,7.22
2023-03-14T19:51:55.068Z,5.27
2023-03-14T19:54:23.252Z,5.97
2023-03-14T19:56:51.725Z,3.42
2023-03-14T19:59:18.582Z,1.90
2023-03-14T20:01:48.796Z,1.38
2023-03-14T20:04:15.710Z,1.00
2023-03-14T20:06:42.492Z,0.85
2023-03-14T20:09:12.617Z,0.80
2023-03-14T20:11:43.823Z,0.55
2023-03-14T20:14:11.634Z,0.60
2023-03-14T20:16:38.829Z,0.77
2023-03-14T20:19:10.682Z,0.68
2023-03-14T20:21:37.603Z,0.90
2023-03-14T20:24:05.165Z,0.88
2023-03-14T20:26:34.670Z,0.98
2023-03-14T20:29:01.370Z,0.60
2023-03-14T20:31:28.205Z,0.40
2023-03-14T20:33:55.010Z,0.40
2023-03-14T20:36:21.814Z,0.45
2023-03-14T20:38:48.626Z,0.52
2023-03-14T20:41:15.396Z,0.60
2023-03-14T20:43:42.354Z,0.30
2023-03-14T20:46:12.835Z,0.55
2023-03-14T20:48:39.832Z,0.60
2023-03-14T20:51:06.724Z,0.90
2023-03-14T20:53:33.398Z,1.00
2023-03-14T20:56:00.142Z,0.70
2023-03-14T20:58:27.136Z,0.70
2023-03-14T21:00:55.860Z,0.82
2023-03-14T21:03:24.065Z,0.82
2023-03-14T21:05:52.217Z,1.13
2023-03-14T21:08:22.617Z,1.10
2023-03-14T21:10:54.583Z,1.27
2023-03-14T21:13:21.644Z,0.93
2023-03-14T21:15:48.870Z,0.90
2023-03-14T21:18:16.297Z,1.00
2023-03-14T21:20:43.861Z,1.17
2023-03-14T21:23:15.962Z,1.70
2023-03-14T21:25:45.009Z,1.30
2023-03-14T21:28:12.835Z,1.58
2023-03-14T21:30:39.788Z,1.47
2023-03-14T21:33:06.479Z,1.52
2023-03-14T21:35:33.179Z,1.77
2023-03-14T21:38:00.020Z,1.65
2023-03-14T21:40:26.926Z,1.80
2023-03-14T21:42:54.345Z,1.67
2023-03-14T21:45:25.883Z,1.65
2023-03-14T21:47:54.039Z,1.70
2023-03-14T21:50:23.447Z,1.77
2023-03-14T21:52:51.425Z,1.83
2023-03-14T21:55:18.906Z,1.07
2023-03-14T21:57:47.542Z,1.20
2023-03-14T22:00:17.774Z,0.45
2023-03-14T22:02:53.797Z,0.45
2023-03-14T22:05:32.245Z,0.30
2023-03-14T22:07:58.944Z,0.30
2023-03-14T22:10:25.597Z,0.28
2023-03-14T22:12:52.307Z,0.20
2023-03-14T22:15:19.095Z,0.13
2023-03-14T22:17:45.794Z,0.20
2023-03-14T22:20:13.902Z,0.10
2023-03-14T22:22:41.196Z,0.10
2023-03-14T22:25:08.379Z,0.20
2023-03-14T22:27:35.137Z,0.10
2023-03-14T22:30:02.128Z,0.20
2023-03-14T22:32:29.140Z,0.10
2023-03-14T22:34:55.936Z,0.20
2023-03-14T22:37:23.495Z,0.25
2023-03-14T22:39:50.209Z,0.20
2023-03-14T22:42:17.353Z,0.20
2023-03-14T22:44:44.019Z,0.30
2023-03-14T22:47:10.842Z,0.30
2023-03-14T22:49:37.744Z,0.30
2023-03-14T22:52:04.846Z,0.40
2023-03-14T22:54:31.600Z,0.32
2023-03-14T22:56:58.820Z,0.50
2023-03-14T22:59:25.566Z,2.40
2023-03-14T23:01:52.316Z,1.15
2023-03-14T23:04:19.015Z,0.50
2023-03-14T23:06:45.826Z,0.70
2023-03-14T23:09:12.676Z,1.90
2023-03-14T23:11:40.058Z,1.48
2023-03-14T23:14:06.933Z,0.90
2023-03-14T23:16:39.980Z,0.60
2023-03-14T23:19:08.105Z,0.30
2023-03-14T23:21:34.765Z,0.40
2023-03-14T23:24:05.580Z,0.80
2023-03-14T23:26:35.385Z,0.30
2023-03-14T23:29:05.483Z,0.10
2023-03-14T23:31:33.126Z,0.20
2023-03-14T23:33:59.843Z,0.50
2023-03-14T23:36:26.596Z,0.30
2023-03-14T23:38:53.298Z,0.43
2023-03-14T23:41:19.974Z,0.47
2023-03-14T23:43:47.928Z,0.95
2023-03-14T23:46:16.376Z,0.50
2023-03-14T23:48:46.721Z,0.10
2023-03-14T23:51:14.465Z,0.40
2023-03-14T23:53:47.795Z,0.40
2023-03-14T23:56:15.841Z,0.52
2023-03-14T23:58:43.248Z,1.00
